Trinidad, Trinidad and Tobago
Current Conditions -  °F | °C
As of 5:00 PM on Saturday 25 Oct 2014 (Local Time) from TTPP Reporting Station
Few Clouds Few Clouds  
Wind Chill: 82°   Ceiling: Unl
Heat Index: 89°   Visibility: 6mi
Dew Point: 75°   Wind: 5mph
Humidity: 79%   Direction: 150°SSE
Pressure: 29.77"   Gusts: NA
Location:  10.62°N, 61.35°W
Report Text: TTPP 252100Z 15004KT 9999 FEW016 28/24 Q1008 NOSIG
Loading
Personal Weather Stations






























Interactive Weather Map
Tropical Storm Tracking
New forecast layout! Learn more

10-Day Weather Forecast

Advertisements
Track Severe Weather on mobile